Carlisle, Minnesota
Current Conditions -  °F | °C
As of 9:34 PM on Monday 26 Jan 2015 (Local Time) from KFFM Reporting Station
Overcast Overcast  
Wind Chill: 22°   Ceiling: 900
Heat Index: 28°   Visibility: 10mi
Dew Point: 27°   Wind: 6mph
Humidity: 93%   Direction: 360°N
Pressure: 30.03"   Gusts: NA
Location:  46.2829°N, 96.0991°W
Report Text: KFFM 270334Z AUTO 36005KT 10SM OVC009 M02/M03 A3003 RMK AO2
Loading
Personal Weather Stations






























Interactive Weather Map New forecast layout! Learn more

10-Day Weather Forecast

Advertisements
Track Severe Weather on mobile